createdAt,value
2016-03-14T10:12:59.986Z,5700
2016-03-14T10:13:59.614Z,5748
2016-03-14T10:14:59.570Z,5600
2016-03-14T10:15:59.697Z,6520
2016-03-14T10:16:59.529Z,6304
2016-03-14T10:18:00.749Z,6500
2016-03-14T10:18:59.549Z,5912
2016-03-14T10:19:59.662Z,5460
2016-03-14T10:20:59.617Z,5356
2016-03-14T10:22:16.373Z,5304
2016-03-14T10:23:09.185Z,5320
2016-03-14T10:23:59.704Z,5352
2016-03-14T10:25:00.128Z,5412
2016-03-14T10:25:59.631Z,5656
2016-03-14T10:26:59.540Z,5808
2016-03-14T10:27:59.573Z,5948
2016-03-14T10:28:59.515Z,6316
2016-03-14T10:29:59.673Z,6848
2016-03-14T10:30:59.504Z,7016
2016-03-14T10:31:59.537Z,7360
2016-03-14T10:32:59.759Z,7484
2016-03-14T10:33:59.418Z,6672
2016-03-14T10:34:59.515Z,6104
2016-03-14T10:35:59.455Z,6048
2016-03-14T10:36:59.410Z,5876
2016-03-14T10:38:30.322Z,5924
2016-03-14T10:38:59.431Z,6016
2016-03-14T10:39:59.434Z,5896
2016-03-14T10:40:59.436Z,5452
2016-03-14T10:41:59.783Z,5820
2016-03-14T10:43:07.770Z,6112
2016-03-14T10:43:59.633Z,6228
2016-03-14T10:44:59.494Z,6396
2016-03-14T10:45:59.341Z,6516
2016-03-14T10:47:01.172Z,6520
2016-03-14T10:47:59.502Z,6428
2016-03-14T10:48:59.411Z,6304
2016-03-14T10:49:59.477Z,6108
2016-03-14T10:50:59.260Z,5876
2016-03-14T10:51:59.263Z,5664
2016-03-14T10:53:06.140Z,5544
2016-03-14T10:53:59.503Z,5492
2016-03-14T10:54:59.224Z,5752
2016-03-14T10:55:59.492Z,5812
2016-03-14T10:56:59.215Z,5928
2016-03-14T10:57:59.201Z,5920
2016-03-14T10:58:59.157Z,5904
2016-03-14T11:00:07.737Z,5924
2016-03-14T11:00:59.210Z,5844
2016-03-14T11:01:59.229Z,5748
2016-03-14T11:03:04.653Z,5584
2016-03-14T11:03:59.171Z,5560
2016-03-14T11:04:59.002Z,5772
2016-03-14T11:05:59.052Z,5760
2016-03-14T11:06:59.304Z,5808
2016-03-14T11:07:59.213Z,5748
2016-03-14T11:08:58.935Z,5856
2016-03-14T11:09:59.047Z,5996
2016-03-14T11:10:59.190Z,6108
2016-03-14T11:11:59.020Z,6212
2016-03-14T11:13:07.742Z,6364
2016-03-14T11:13:59.026Z,6540
2016-03-14T11:14:59.029Z,6588
2016-03-14T11:15:58.829Z,6516
2016-03-14T11:16:59.097Z,6648
2016-03-14T11:17:59.006Z,6524
2016-03-14T11:18:59.024Z,6760
2016-03-14T11:19:59.011Z,6800
2016-03-14T11:20:58.998Z,6760
2016-03-14T11:21:58.958Z,6708
2016-03-14T11:22:58.928Z,6816
2016-03-14T11:23:59.758Z,6800
2016-03-14T11:24:58.918Z,7124
2016-03-14T11:25:59.108Z,6820
2016-03-14T11:26:58.939Z,7100
2016-03-14T11:27:58.863Z,7504
2016-03-14T11:28:58.897Z,7724
2016-03-14T11:29:58.963Z,8180
2016-03-14T11:30:58.887Z,8256
2016-03-14T11:31:58.844Z,8496
2016-03-14T11:32:58.987Z,8312
2016-03-14T11:33:58.833Z,7892
2016-03-14T11:35:07.680Z,7692
2016-03-14T11:35:58.885Z,8004
2016-03-14T11:36:58.919Z,8356
2016-03-14T11:37:58.703Z,8360
2016-03-14T11:38:58.768Z,8240
2016-03-14T11:39:58.896Z,8616
2016-03-14T11:40:59.086Z,9128
2016-03-14T11:41:58.808Z,9192
2016-03-14T11:42:58.842Z,9692
2016-03-14T11:43:58.859Z,10156
2016-03-14T11:44:59.472Z,9836
2016-03-14T11:45:58.709Z,9692
2016-03-14T11:46:58.665Z,9888
2016-03-14T11:47:58.652Z,9592
2016-03-14T11:49:00.295Z,9104
2016-03-14T11:50:07.220Z,8960
2016-03-14T11:50:58.676Z,8936
2016-03-14T11:51:58.491Z,8960
2016-03-14T11:53:09.978Z,8688
2016-03-14T11:53:58.574Z,9020
2016-03-14T11:54:58.570Z,9500
2016-03-14T11:55:58.579Z,10132
2016-03-14T11:56:58.368Z,10760
2016-03-14T11:57:58.518Z,11260
2016-03-14T11:58:58.485Z,11800
2016-03-14T12:00:58.450Z,12192
2016-03-14T12:02:07.246Z,12124
2016-03-14T12:02:58.714Z,12120
2016-03-14T12:03:58.431Z,12164
2016-03-14T12:04:58.448Z,11964
2016-03-14T12:05:58.558Z,11764
2016-03-14T12:06:58.435Z,11612
2016-03-14T12:07:58.640Z,11748
2016-03-14T12:08:58.407Z,11852
2016-03-14T12:09:58.347Z,11764
2016-03-14T12:10:58.365Z,12128
2016-03-14T12:11:58.383Z,12180
2016-03-14T12:12:58.198Z,12132
2016-03-14T12:13:58.246Z,12060
2016-03-14T12:14:58.405Z,12224
2016-03-14T12:15:58.298Z,12328
2016-03-14T12:16:58.348Z,12320
2016-03-14T12:18:06.678Z,12500
2016-03-14T12:18:58.305Z,12528
2016-03-14T12:19:58.511Z,12220
2016-03-14T12:20:58.326Z,12000
2016-03-14T12:21:58.235Z,11724
2016-03-14T12:22:58.206Z,11284
2016-03-14T12:23:58.257Z,11180
2016-03-14T12:24:58.243Z,11044
2016-03-14T12:26:04.996Z,10816
2016-03-14T12:26:58.170Z,10800
2016-03-14T12:27:58.095Z,10836
2016-03-14T12:28:58.206Z,10820
2016-03-14T12:29:58.163Z,10784
2016-03-14T12:30:58.197Z,10792
2016-03-14T12:31:57.824Z,10856
2016-03-14T12:32:58.202Z,10792
2016-03-14T12:34:06.689Z,10780
2016-03-14T12:34:58.411Z,10752
2016-03-14T12:35:58.131Z,10752
2016-03-14T12:36:58.182Z,10652
2016-03-14T12:37:58.200Z,10404
2016-03-14T12:38:58.109Z,10104
2016-03-14T12:39:58.081Z,9848
2016-03-14T12:40:58.115Z,9516
2016-03-14T12:41:58.430Z,9204
2016-03-14T12:42:58.073Z,8876
2016-03-14T12:43:58.044Z,8656
2016-03-14T12:44:58.016Z,8364
2016-03-14T12:46:57.974Z,8108
2016-03-14T12:47:58.024Z,8000
2016-03-14T12:48:57.963Z,7808
2016-03-14T12:49:58.263Z,7604
2016-03-14T12:50:58.079Z,7424
2016-03-14T12:51:58.050Z,7276
2016-03-14T12:52:58.209Z,7032
2016-03-14T12:53:57.947Z,6956
2016-03-14T12:54:57.933Z,6752
2016-03-14T12:55:57.888Z,6556
2016-03-14T12:57:58.004Z,6364
2016-03-14T12:59:06.147Z,6288
2016-03-14T12:59:57.868Z,6168
2016-03-14T13:00:57.856Z,6068
2016-03-14T13:01:58.092Z,5948
2016-03-14T13:02:57.861Z,5848
2016-03-14T13:03:57.910Z,5728
2016-03-14T13:05:03.662Z,5576
2016-03-14T13:06:06.134Z,5468
2016-03-14T13:06:58.231Z,5308
2016-03-14T13:07:57.670Z,5080
2016-03-14T13:08:57.721Z,4936
2016-03-14T13:09:57.786Z,4852
2016-03-14T13:10:57.836Z,4768
2016-03-14T13:11:57.854Z,4724
2016-03-14T13:12:57.809Z,4756
2016-03-14T13:13:57.797Z,4832
2016-03-14T13:14:58.080Z,4912
2016-03-14T13:15:57.849Z,4964
2016-03-14T13:16:57.727Z,4980
2016-03-14T13:17:57.698Z,4964
2016-03-14T13:18:57.841Z,4936
2016-03-14T13:19:57.766Z,4940
2016-03-14T13:20:57.612Z,4900
2016-03-14T13:21:57.615Z,4816
2016-03-14T13:23:07.602Z,4860
2016-03-14T13:23:57.870Z,4864
2016-03-14T13:24:57.608Z,4840
2016-03-14T13:26:07.391Z,4796
2016-03-14T13:26:57.613Z,4752
2016-03-14T13:27:58.303Z,4668
2016-03-14T13:28:57.572Z,4636
2016-03-14T13:29:57.480Z,4600
2016-03-14T13:30:57.686Z,4588
2016-03-14T13:32:57.520Z,4492
2016-03-14T13:33:57.413Z,4356
2016-03-14T13:34:57.463Z,4316
2016-03-14T13:35:57.418Z,4240
2016-03-14T13:36:57.453Z,4180
2016-03-14T13:37:57.470Z,4056
2016-03-14T13:38:57.645Z,3908
2016-03-14T13:39:57.554Z,3936
2016-03-14T13:40:57.431Z,4008
2016-03-14T13:41:57.404Z,4016
2016-03-14T13:43:06.187Z,4024
2016-03-14T13:43:57.612Z,3964
2016-03-14T13:44:57.474Z,3976
2016-03-14T13:45:57.398Z,3972
2016-03-14T13:46:57.526Z,3920
2016-03-14T13:47:57.388Z,3888
2016-03-14T13:48:57.500Z,3852
2016-03-14T13:49:57.316Z,3828
2016-03-14T13:50:57.319Z,3792
2016-03-14T13:51:57.321Z,3820
2016-03-14T13:53:06.074Z,3820
2016-03-14T13:53:57.138Z,3840
2016-03-14T13:54:57.752Z,3852
2016-03-14T13:56:05.566Z,3788
2016-03-14T13:56:57.271Z,3744
2016-03-14T13:57:57.274Z,3732
2016-03-14T13:58:57.262Z,3696
2016-03-14T13:59:57.233Z,3676
2016-03-14T14:00:57.157Z,3680
2016-03-14T14:01:57.504Z,3652
2016-03-14T14:03:57.275Z,3608
2016-03-14T14:04:57.121Z,3616
2016-03-14T14:06:57.085Z,3584
2016-03-14T14:07:58.431Z,3600
2016-03-14T14:09:05.699Z,3620
2016-03-14T14:10:05.702Z,3604
2016-03-14T14:10:57.080Z,3588
2016-03-14T14:11:57.051Z,3576
2016-03-14T14:12:57.070Z,3624
2016-03-14T14:13:57.182Z,3628
2016-03-14T14:14:57.044Z,3588
2016-03-14T14:15:57.062Z,3600
2016-03-14T14:16:56.846Z,3584
2016-03-14T14:17:57.083Z,3636
2016-03-14T14:18:57.039Z,3628
2016-03-14T14:20:04.369Z,3648
2016-03-14T14:20:57.029Z,3628
2016-03-14T14:21:56.938Z,3596
2016-03-14T14:22:58.956Z,3604
2016-03-14T14:23:57.005Z,3592
2016-03-14T14:24:56.946Z,3616
2016-03-14T14:25:56.949Z,3576
2016-03-14T14:26:56.935Z,3560
2016-03-14T14:28:05.719Z,3540
2016-03-14T14:28:56.878Z,3472
2016-03-14T14:29:56.881Z,3464
2016-03-14T14:30:56.852Z,3440
2016-03-14T14:31:56.840Z,3444
2016-03-14T14:32:56.812Z,3428
2016-03-14T14:33:56.954Z,3416
2016-03-14T14:34:56.832Z,3396
2016-03-14T14:35:56.756Z,3404
2016-03-14T14:37:56.731Z,3392
2016-03-14T14:38:57.109Z,3372
2016-03-14T14:39:57.268Z,3356
2016-03-14T14:40:56.817Z,3364
2016-03-14T14:41:56.773Z,3336
2016-03-14T14:42:56.572Z,3328
2016-03-14T14:43:56.637Z,3316
2016-03-14T14:44:56.672Z,3320
2016-03-14T14:46:05.283Z,3312
2016-03-14T14:46:56.817Z,3312
2016-03-14T14:47:56.694Z,3296
2016-03-14T14:48:56.698Z,3276
2016-03-14T14:50:04.716Z,3296
2016-03-14T14:51:56.659Z,3316
2016-03-14T14:52:57.443Z,3296
2016-03-14T14:54:05.039Z,3276
2016-03-14T14:54:57.496Z,3284
2016-03-14T14:55:56.466Z,3280
2016-03-14T14:56:57.047Z,3280
2016-03-14T14:57:56.549Z,3268
2016-03-14T14:58:56.568Z,3272
2016-03-14T14:59:56.555Z,3288
2016-03-14T15:00:56.496Z,3288
2016-03-14T15:01:56.499Z,3288
2016-03-14T15:02:56.563Z,3268
2016-03-14T15:03:56.550Z,3252
2016-03-14T15:04:56.460Z,3228
2016-03-14T15:05:56.556Z,3224
2016-03-14T15:06:56.606Z,3212
2016-03-14T15:07:56.420Z,3212
2016-03-14T15:08:56.376Z,3212
2016-03-14T15:09:56.457Z,3204
2016-03-14T15:10:56.648Z,3204
2016-03-14T15:12:03.197Z,3208
2016-03-14T15:13:04.731Z,3212
2016-03-14T15:13:56.890Z,3208
2016-03-14T15:14:56.424Z,3216
2016-03-14T15:15:56.802Z,3224
2016-03-14T15:16:56.555Z,3240
2016-03-14T15:17:56.619Z,3260
2016-03-14T15:18:56.419Z,3260
2016-03-14T15:20:01.969Z,3248
2016-03-14T15:20:56.596Z,3248
2016-03-14T15:21:56.286Z,3236
2016-03-14T15:22:56.399Z,3232
2016-03-14T15:23:56.448Z,3216
2016-03-14T15:24:56.466Z,3228
2016-03-14T15:25:56.282Z,3260
2016-03-14T15:26:56.332Z,3284
2016-03-14T15:27:56.287Z,3300
2016-03-14T15:29:56.198Z,3368
2016-03-14T15:30:56.421Z,3408
2016-03-14T15:31:56.235Z,3448
2016-03-14T15:32:57.566Z,3464
2016-03-14T15:33:56.116Z,3464
2016-03-14T15:34:55.993Z,3420
2016-03-14T15:35:56.246Z,3380
2016-03-14T15:37:04.624Z,3348
2016-03-14T15:39:04.192Z,3352
2016-03-14T15:39:56.084Z,3364
2016-03-14T15:40:56.072Z,3392
2016-03-14T15:41:56.309Z,3416
2016-03-14T15:42:56.140Z,3432
2016-03-14T15:43:56.346Z,3448
2016-03-14T15:44:56.176Z,3464
2016-03-14T15:45:56.086Z,3456
2016-03-14T15:46:55.978Z,3400
2016-03-14T15:47:56.013Z,3396
2016-03-14T15:48:55.958Z,3412
2016-03-14T15:49:56.055Z,3444
2016-03-14T15:50:56.026Z,3444
2016-03-14T15:51:58.747Z,3436
2016-03-14T15:52:55.875Z,3428
2016-03-14T15:53:55.972Z,3420
2016-03-14T15:54:55.927Z,3436
2016-03-14T15:55:56.413Z,3428
2016-03-14T15:56:59.808Z,3400
2016-03-14T15:58:56.001Z,3380
2016-03-14T16:00:04.174Z,3308
2016-03-14T16:00:55.975Z,3272
2016-03-14T16:01:55.868Z,3244
2016-03-14T16:02:55.683Z,3220
2016-03-14T16:03:55.810Z,3172
2016-03-14T16:04:55.860Z,3100
2016-03-14T16:05:55.770Z,3024
2016-03-14T16:06:56.037Z,2952
2016-03-14T16:07:55.884Z,2892
2016-03-14T16:08:55.731Z,2828
2016-03-14T16:09:55.827Z,2780
2016-03-14T16:10:55.720Z,2748
2016-03-14T16:12:03.739Z,2668
2016-03-14T16:12:56.163Z,2616
2016-03-14T16:13:55.729Z,2560
2016-03-14T16:14:56.075Z,2496
2016-03-14T16:15:55.656Z,2436
2016-03-14T16:16:56.033Z,2376
2016-03-14T16:17:55.880Z,2324
2016-03-14T16:18:55.850Z,2268
2016-03-14T16:19:55.636Z,2212
2016-03-14T16:20:55.653Z,2176
2016-03-14T16:21:58.406Z,2164
2016-03-14T16:22:55.331Z,2152
2016-03-14T16:24:04.755Z,2136
2016-03-14T16:24:55.414Z,2136
2016-03-14T16:25:55.855Z,2136
2016-03-14T16:27:03.935Z,2124
2016-03-14T16:28:55.440Z,2060
2016-03-14T16:29:55.552Z,2016
2016-03-14T16:30:55.633Z,1972
2016-03-14T16:32:55.690Z,1880
2016-03-14T16:33:55.568Z,1824
2016-03-14T16:34:55.462Z,1764
2016-03-14T16:35:55.526Z,1720
2016-03-14T16:36:55.467Z,1664
2016-03-14T16:37:55.548Z,1616
2016-03-14T16:38:55.285Z,1576
2016-03-14T16:39:55.397Z,1532
2016-03-14T16:40:55.447Z,1480
2016-03-14T16:41:55.542Z,1428
2016-03-14T16:42:55.530Z,1400
2016-03-14T16:43:55.330Z,1380
2016-03-14T16:44:55.379Z,1364
2016-03-14T16:45:55.335Z,1352
2016-03-14T16:46:55.431Z,1348
2016-03-14T16:47:55.372Z,1316
2016-03-14T16:49:03.749Z,1304
2016-03-14T16:49:55.299Z,1300
2016-03-14T16:50:55.427Z,1276
2016-03-14T16:53:04.197Z,1224
2016-03-14T16:53:55.153Z,1208
2016-03-14T16:54:55.562Z,1172
2016-03-14T16:55:55.268Z,1124
2016-03-14T16:56:55.255Z,1072
2016-03-14T16:57:57.523Z,1016
2016-03-14T16:58:55.199Z,944
2016-03-14T17:00:55.126Z,780
2016-03-14T17:01:55.144Z,708
2016-03-14T17:02:55.116Z,644
2016-03-14T17:03:55.338Z,584
2016-03-14T17:04:55.247Z,528
2016-03-14T17:05:55.015Z,472
2016-03-14T17:07:03.737Z,416
2016-03-14T17:08:03.225Z,380
2016-03-14T17:08:55.055Z,344
2016-03-14T17:09:55.073Z,316
2016-03-14T17:10:54.983Z,288
2016-03-14T17:12:55.081Z,248
2016-03-14T17:13:55.053Z,240
2016-03-14T17:14:55.009Z,232
2016-03-14T17:16:02.355Z,216
2016-03-14T17:16:54.953Z,200
2016-03-14T17:17:57.878Z,176
2016-03-14T17:18:54.974Z,152
2016-03-14T17:19:55.289Z,128
2016-03-14T17:21:03.745Z,104
2016-03-14T17:21:54.638Z,88
2016-03-14T17:22:55.125Z,76
2016-03-14T17:23:54.878Z,64
2016-03-14T17:24:54.943Z,56
2016-03-14T17:25:54.883Z,48
2016-03-14T17:26:54.886Z,36
2016-03-14T17:27:54.920Z,32
2016-03-14T22:43:51.993Z,0
2016-03-14T22:44:52.121Z,0
2016-03-14T22:46:52.049Z,0
2016-03-14T22:47:52.130Z,0
2016-03-14T22:49:00.679Z,0
2016-03-14T22:49:52.056Z,0
2016-03-14T22:50:51.997Z,0
2016-03-14T22:51:52.000Z,0
2016-03-14T22:52:52.018Z,0
2016-03-14T22:53:52.224Z,0
2016-03-14T22:54:51.976Z,0
2016-03-14T22:56:00.698Z,0
2016-03-14T22:56:51.904Z,0
2016-03-14T22:57:52.532Z,0
2016-03-14T22:58:51.940Z,0
2016-03-14T22:59:52.162Z,0
2016-03-14T23:00:51.947Z,0
2016-03-14T23:01:51.917Z,0
2016-03-14T23:02:51.873Z,0
2016-03-14T23:03:53.172Z,0
2016-03-14T23:04:51.816Z,0
2016-03-14T23:05:51.927Z,0
2016-03-14T23:07:22.636Z,0
2016-03-14T23:08:00.699Z,0
2016-03-14T23:08:51.921Z,0
2016-03-14T23:09:51.938Z,0
2016-03-14T23:10:52.051Z,0
2016-03-14T23:11:51.725Z,0
2016-03-14T23:12:51.760Z,0
2016-03-14T23:13:51.716Z,0
2016-03-14T23:14:51.655Z,0
2016-03-14T23:16:00.158Z,0
2016-03-14T23:16:51.645Z,0
2016-03-14T23:17:59.695Z,0
2016-03-14T23:18:51.603Z,0
2016-03-14T23:20:51.625Z,0
2016-03-14T23:21:51.534Z,0
